sensor_id;sensor_type;location;lat;lon;timestamp;P1;durP1;ratioP1;P2;durP2;ratioP2
15996;SDS011;8103;51.340;12.326;2023-06-24T00:00:11;18.63;;;14.93;;
15996;SDS011;8103;51.340;12.326;2023-06-24T00:02:39;27.92;;;22.30;;
15996;SDS011;8103;51.340;12.326;2023-06-24T00:05:10;22.88;;;17.38;;
15996;SDS011;8103;51.340;12.326;2023-06-24T00:07:37;22.38;;;16.95;;
15996;SDS011;8103;51.340;12.326;2023-06-24T00:10:11;22.42;;;16.70;;
15996;SDS011;8103;51.340;12.326;2023-06-24T00:12:40;22.40;;;15.35;;
15996;SDS011;8103;51.340;12.326;2023-06-24T00:15:07;25.35;;;17.83;;
15996;SDS011;8103;51.340;12.326;2023-06-24T00:17:38;22.08;;;16.63;;
15996;SDS011;8103;51.340;12.326;2023-06-24T00:20:06;20.00;;;16.75;;
15996;SDS011;8103;51.340;12.326;2023-06-24T00:22:37;27.95;;;22.52;;
15996;SDS011;8103;51.340;12.326;2023-06-24T00:25:14;32.30;;;24.27;;
15996;SDS011;8103;51.340;12.326;2023-06-24T00:27:41;21.48;;;19.20;;
15996;SDS011;8103;51.340;12.326;2023-06-24T00:30:09;22.98;;;15.63;;
15996;SDS011;8103;51.340;12.326;2023-06-24T00:32:38;26.23;;;15.05;;
15996;SDS011;8103;51.340;12.326;2023-06-24T00:35:07;17.52;;;12.77;;
15996;SDS011;8103;51.340;12.326;2023-06-24T00:37:34;19.00;;;15.43;;
15996;SDS011;8103;51.340;12.326;2023-06-24T00:40:09;18.80;;;12.88;;
15996;SDS011;8103;51.340;12.326;2023-06-24T00:42:44;15.63;;;13.75;;
15996;SDS011;8103;51.340;12.326;2023-06-24T00:45:12;21.92;;;15.27;;
15996;SDS011;8103;51.340;12.326;2023-06-24T00:47:39;20.45;;;14.88;;
15996;SDS011;8103;51.340;12.326;2023-06-24T00:50:07;18.83;;;13.30;;
15996;SDS011;8103;51.340;12.326;2023-06-24T00:52:38;27.48;;;16.10;;
15996;SDS011;8103;51.340;12.326;2023-06-24T00:55:09;27.65;;;17.85;;
15996;SDS011;8103;51.340;12.326;2023-06-24T00:57:39;20.52;;;16.77;;
15996;SDS011;8103;51.340;12.326;2023-06-24T01:00:11;22.10;;;13.35;;
15996;SDS011;8103;51.340;12.326;2023-06-24T01:02:43;17.25;;;13.07;;
15996;SDS011;8103;51.340;12.326;2023-06-24T01:05:13;22.15;;;15.13;;
15996;SDS011;8103;51.340;12.326;2023-06-24T01:07:41;28.10;;;15.70;;
15996;SDS011;8103;51.340;12.326;2023-06-24T01:10:09;25.77;;;13.93;;
15996;SDS011;8103;51.340;12.326;2023-06-24T01:12:39;17.48;;;13.60;;
15996;SDS011;8103;51.340;12.326;2023-06-24T01:15:07;23.15;;;14.40;;
15996;SDS011;8103;51.340;12.326;2023-06-24T01:17:38;20.10;;;14.35;;
15996;SDS011;8103;51.340;12.326;2023-06-24T01:26:32;27.48;;;15.27;;
15996;SDS011;8103;51.340;12.326;2023-06-24T01:32:29;20.08;;;14.05;;
15996;SDS011;8103;51.340;12.326;2023-06-24T01:35:07;26.20;;;14.30;;
15996;SDS011;8103;51.340;12.326;2023-06-24T01:37:48;20.67;;;14.55;;
15996;SDS011;8103;51.340;12.326;2023-06-24T01:40:26;23.63;;;14.85;;
15996;SDS011;8103;51.340;12.326;2023-06-24T01:42:58;20.60;;;15.60;;
15996;SDS011;8103;51.340;12.326;2023-06-24T01:45:32;22.52;;;15.52;;
15996;SDS011;8103;51.340;12.326;2023-06-24T01:48:07;25.77;;;15.40;;
15996;SDS011;8103;51.340;12.326;2023-06-24T01:50:44;21.15;;;13.65;;
15996;SDS011;8103;51.340;12.326;2023-06-24T01:53:23;23.10;;;14.70;;
15996;SDS011;8103;51.340;12.326;2023-06-24T01:55:54;20.58;;;15.05;;
15996;SDS011;8103;51.340;12.326;2023-06-24T01:58:25;22.67;;;15.18;;
15996;SDS011;8103;51.340;12.326;2023-06-24T02:00:52;23.95;;;14.82;;
15996;SDS011;8103;51.340;12.326;2023-06-24T02:03:20;19.70;;;14.20;;
15996;SDS011;8103;51.340;12.326;2023-06-24T02:05:49;21.80;;;15.50;;
15996;SDS011;8103;51.340;12.326;2023-06-24T02:08:19;24.48;;;15.27;;
15996;SDS011;8103;51.340;12.326;2023-06-24T02:10:48;28.20;;;15.05;;
15996;SDS011;8103;51.340;12.326;2023-06-24T02:13:17;27.90;;;15.65;;
15996;SDS011;8103;51.340;12.326;2023-06-24T02:15:46;19.67;;;15.18;;
15996;SDS011;8103;51.340;12.326;2023-06-24T02:18:15;20.10;;;16.73;;
15996;SDS011;8103;51.340;12.326;2023-06-24T02:20:44;19.60;;;14.60;;
15996;SDS011;8103;51.340;12.326;2023-06-24T02:23:13;29.48;;;16.33;;
15996;SDS011;8103;51.340;12.326;2023-06-24T02:25:41;22.05;;;14.82;;
15996;SDS011;8103;51.340;12.326;2023-06-24T02:28:09;24.45;;;15.35;;
15996;SDS011;8103;51.340;12.326;2023-06-24T02:30:37;25.02;;;15.77;;
15996;SDS011;8103;51.340;12.326;2023-06-24T02:33:05;16.55;;;14.68;;
15996;SDS011;8103;51.340;12.326;2023-06-24T02:35:34;23.02;;;17.05;;
15996;SDS011;8103;51.340;12.326;2023-06-24T02:38:01;19.67;;;14.77;;
15996;SDS011;8103;51.340;12.326;2023-06-24T02:40:29;19.95;;;14.43;;
15996;SDS011;8103;51.340;12.326;2023-06-24T02:42:58;28.15;;;18.23;;
15996;SDS011;8103;51.340;12.326;2023-06-24T02:45:26;20.67;;;16.42;;
15996;SDS011;8103;51.340;12.326;2023-06-24T02:47:54;26.27;;;17.08;;
15996;SDS011;8103;51.340;12.326;2023-06-24T02:50:23;18.42;;;15.10;;
15996;SDS011;8103;51.340;12.326;2023-06-24T02:52:51;23.52;;;15.20;;
15996;SDS011;8103;51.340;12.326;2023-06-24T02:55:19;21.10;;;17.08;;
15996;SDS011;8103;51.340;12.326;2023-06-24T02:57:47;19.75;;;15.60;;
15996;SDS011;8103;51.340;12.326;2023-06-24T03:00:16;17.15;;;15.32;;
15996;SDS011;8103;51.340;12.326;2023-06-24T03:02:44;26.60;;;16.17;;
15996;SDS011;8103;51.340;12.326;2023-06-24T03:05:13;28.25;;;15.63;;
15996;SDS011;8103;51.340;12.326;2023-06-24T03:07:44;21.63;;;15.77;;
15996;SDS011;8103;51.340;12.326;2023-06-24T03:10:12;24.83;;;15.98;;
15996;SDS011;8103;51.340;12.326;2023-06-24T03:12:41;22.23;;;16.30;;
15996;SDS011;8103;51.340;12.326;2023-06-24T03:15:08;25.00;;;16.42;;
15996;SDS011;8103;51.340;12.326;2023-06-24T03:17:36;20.55;;;15.50;;
15996;SDS011;8103;51.340;12.326;2023-06-24T03:20:03;14.60;;;13.23;;
15996;SDS011;8103;51.340;12.326;2023-06-24T03:22:31;15.73;;;13.13;;
15996;SDS011;8103;51.340;12.326;2023-06-24T03:24:59;24.75;;;14.73;;
15996;SDS011;8103;51.340;12.326;2023-06-24T03:27:26;21.02;;;14.27;;
15996;SDS011;8103;51.340;12.326;2023-06-24T03:29:53;16.88;;;12.85;;
15996;SDS011;8103;51.340;12.326;2023-06-24T03:32:20;22.45;;;13.65;;
15996;SDS011;8103;51.340;12.326;2023-06-24T03:34:47;18.55;;;14.82;;
15996;SDS011;8103;51.340;12.326;2023-06-24T03:37:14;22.02;;;14.38;;
15996;SDS011;8103;51.340;12.326;2023-06-24T03:39:42;17.25;;;12.95;;
15996;SDS011;8103;51.340;12.326;2023-06-24T03:42:10;21.77;;;13.50;;
15996;SDS011;8103;51.340;12.326;2023-06-24T03:44:37;14.18;;;11.75;;
15996;SDS011;8103;51.340;12.326;2023-06-24T03:47:04;14.45;;;12.63;;
15996;SDS011;8103;51.340;12.326;2023-06-24T03:49:31;14.52;;;12.07;;
15996;SDS011;8103;51.340;12.326;2023-06-24T03:51:57;15.05;;;11.30;;
15996;SDS011;8103;51.340;12.326;2023-06-24T03:54:24;22.48;;;13.70;;
15996;SDS011;8103;51.340;12.326;2023-06-24T03:56:51;17.30;;;12.52;;
15996;SDS011;8103;51.340;12.326;2023-06-24T03:59:18;15.05;;;12.43;;
15996;SDS011;8103;51.340;12.326;2023-06-24T04:01:46;18.60;;;12.48;;
15996;SDS011;8103;51.340;12.326;2023-06-24T04:04:13;17.08;;;11.82;;
15996;SDS011;8103;51.340;12.326;2023-06-24T04:06:39;18.42;;;12.30;;
15996;SDS011;8103;51.340;12.326;2023-06-24T04:09:06;21.45;;;12.63;;
15996;SDS011;8103;51.340;12.326;2023-06-24T04:11:35;18.48;;;12.68;;
15996;SDS011;8103;51.340;12.326;2023-06-24T04:14:02;22.48;;;16.83;;
15996;SDS011;8103;51.340;12.326;2023-06-24T04:16:32;18.20;;;12.68;;
15996;SDS011;8103;51.340;12.326;2023-06-24T04:18:59;15.57;;;11.98;;
15996;SDS011;8103;51.340;12.326;2023-06-24T04:21:26;13.52;;;11.10;;
15996;SDS011;8103;51.340;12.326;2023-06-24T04:23:53;14.70;;;10.55;;
15996;SDS011;8103;51.340;12.326;2023-06-24T04:26:20;15.75;;;11.02;;
15996;SDS011;8103;51.340;12.326;2023-06-24T04:28:47;17.08;;;12.10;;
15996;SDS011;8103;51.340;12.326;2023-06-24T04:31:14;13.43;;;11.32;;
15996;SDS011;8103;51.340;12.326;2023-06-24T04:33:41;12.15;;;9.63;;
15996;SDS011;8103;51.340;12.326;2023-06-24T04:36:08;15.90;;;11.40;;
15996;SDS011;8103;51.340;12.326;2023-06-24T04:38:35;24.98;;;17.58;;
15996;SDS011;8103;51.340;12.326;2023-06-24T04:41:02;20.40;;;12.65;;
15996;SDS011;8103;51.340;12.326;2023-06-24T04:43:29;13.70;;;10.68;;
15996;SDS011;8103;51.340;12.326;2023-06-24T04:45:56;13.95;;;11.02;;
15996;SDS011;8103;51.340;12.326;2023-06-24T04:48:23;16.88;;;11.38;;
15996;SDS011;8103;51.340;12.326;2023-06-24T04:50:50;16.17;;;11.73;;
15996;SDS011;8103;51.340;12.326;2023-06-24T04:53:19;14.05;;;10.85;;
15996;SDS011;8103;51.340;12.326;2023-06-24T04:55:47;15.27;;;11.10;;
15996;SDS011;8103;51.340;12.326;2023-06-24T04:58:14;16.67;;;11.00;;
15996;SDS011;8103;51.340;12.326;2023-06-24T05:00:40;16.67;;;10.88;;
15996;SDS011;8103;51.340;12.326;2023-06-24T05:03:09;16.77;;;10.20;;
15996;SDS011;8103;51.340;12.326;2023-06-24T05:05:36;16.20;;;11.27;;
15996;SDS011;8103;51.340;12.326;2023-06-24T05:08:03;17.13;;;10.50;;
15996;SDS011;8103;51.340;12.326;2023-06-24T05:10:30;17.55;;;11.10;;
15996;SDS011;8103;51.340;12.326;2023-06-24T05:12:57;15.73;;;11.15;;
15996;SDS011;8103;51.340;12.326;2023-06-24T05:15:24;21.25;;;10.82;;
15996;SDS011;8103;51.340;12.326;2023-06-24T05:17:50;17.10;;;11.45;;
15996;SDS011;8103;51.340;12.326;2023-06-24T05:20:19;11.82;;;9.48;;
15996;SDS011;8103;51.340;12.326;2023-06-24T05:22:45;13.85;;;9.38;;
15996;SDS011;8103;51.340;12.326;2023-06-24T05:25:13;16.70;;;10.55;;
15996;SDS011;8103;51.340;12.326;2023-06-24T05:27:40;22.45;;;10.93;;
15996;SDS011;8103;51.340;12.326;2023-06-24T05:30:07;10.75;;;8.88;;
15996;SDS011;8103;51.340;12.326;2023-06-24T05:32:34;12.02;;;8.18;;
15996;SDS011;8103;51.340;12.326;2023-06-24T05:35:01;9.48;;;8.50;;
15996;SDS011;8103;51.340;12.326;2023-06-24T05:37:28;13.00;;;8.98;;
15996;SDS011;8103;51.340;12.326;2023-06-24T05:39:55;14.43;;;9.77;;
15996;SDS011;8103;51.340;12.326;2023-06-24T05:42:24;9.73;;;8.13;;
15996;SDS011;8103;51.340;12.326;2023-06-24T05:44:52;10.02;;;9.00;;
15996;SDS011;8103;51.340;12.326;2023-06-24T05:47:19;17.13;;;9.20;;
15996;SDS011;8103;51.340;12.326;2023-06-24T05:49:48;10.18;;;9.05;;
15996;SDS011;8103;51.340;12.326;2023-06-24T05:52:14;12.30;;;8.77;;
15996;SDS011;8103;51.340;12.326;2023-06-24T05:54:41;12.55;;;8.50;;
15996;SDS011;8103;51.340;12.326;2023-06-24T05:57:08;13.40;;;8.85;;
15996;SDS011;8103;51.340;12.326;2023-06-24T05:59:36;10.00;;;7.68;;
15996;SDS011;8103;51.340;12.326;2023-06-24T06:02:04;10.18;;;8.52;;
15996;SDS011;8103;51.340;12.326;2023-06-24T06:04:31;9.23;;;8.30;;
15996;SDS011;8103;51.340;12.326;2023-06-24T06:06:58;13.77;;;7.45;;
15996;SDS011;8103;51.340;12.326;2023-06-24T06:09:25;10.82;;;8.52;;
15996;SDS011;8103;51.340;12.326;2023-06-24T06:11:52;12.13;;;8.02;;
15996;SDS011;8103;51.340;12.326;2023-06-24T06:14:20;12.93;;;8.63;;
15996;SDS011;8103;51.340;12.326;2023-06-24T06:16:47;9.98;;;7.82;;
15996;SDS011;8103;51.340;12.326;2023-06-24T06:19:14;15.85;;;8.93;;
15996;SDS011;8103;51.340;12.326;2023-06-24T06:21:41;10.65;;;8.60;;
15996;SDS011;8103;51.340;12.326;2023-06-24T06:24:08;11.32;;;8.35;;
15996;SDS011;8103;51.340;12.326;2023-06-24T06:26:40;15.25;;;8.63;;
15996;SDS011;8103;51.340;12.326;2023-06-24T06:29:11;12.70;;;7.47;;
15996;SDS011;8103;51.340;12.326;2023-06-24T06:35:37;11.80;;;8.82;;
15996;SDS011;8103;51.340;12.326;2023-06-24T06:38:04;13.05;;;9.23;;
15996;SDS011;8103;51.340;12.326;2023-06-24T06:40:31;10.38;;;8.32;;
15996;SDS011;8103;51.340;12.326;2023-06-24T06:42:59;12.55;;;10.25;;
15996;SDS011;8103;51.340;12.326;2023-06-24T06:45:26;9.05;;;8.18;;
15996;SDS011;8103;51.340;12.326;2023-06-24T06:47:54;10.75;;;8.80;;
15996;SDS011;8103;51.340;12.326;2023-06-24T06:50:22;9.80;;;8.73;;
15996;SDS011;8103;51.340;12.326;2023-06-24T06:52:48;10.73;;;9.57;;
15996;SDS011;8103;51.340;12.326;2023-06-24T06:55:16;9.73;;;8.40;;
15996;SDS011;8103;51.340;12.326;2023-06-24T06:57:42;10.25;;;8.20;;
15996;SDS011;8103;51.340;12.326;2023-06-24T07:00:10;11.90;;;8.20;;
15996;SDS011;8103;51.340;12.326;2023-06-24T07:02:37;20.25;;;14.15;;
15996;SDS011;8103;51.340;12.326;2023-06-24T07:05:04;21.60;;;14.63;;
15996;SDS011;8103;51.340;12.326;2023-06-24T07:07:31;16.35;;;12.15;;
15996;SDS011;8103;51.340;12.326;2023-06-24T07:09:58;12.68;;;9.75;;
15996;SDS011;8103;51.340;12.326;2023-06-24T07:12:25;14.68;;;8.32;;
15996;SDS011;8103;51.340;12.326;2023-06-24T07:14:52;9.65;;;7.22;;
15996;SDS011;8103;51.340;12.326;2023-06-24T07:17:19;10.88;;;7.68;;
15996;SDS011;8103;51.340;12.326;2023-06-24T07:19:46;11.25;;;7.50;;
15996;SDS011;8103;51.340;12.326;2023-06-24T07:22:13;10.35;;;7.93;;
15996;SDS011;8103;51.340;12.326;2023-06-24T07:24:41;9.93;;;7.35;;
15996;SDS011;8103;51.340;12.326;2023-06-24T07:27:08;9.13;;;8.10;;
15996;SDS011;8103;51.340;12.326;2023-06-24T07:29:35;10.90;;;7.88;;
15996;SDS011;8103;51.340;12.326;2023-06-24T07:32:02;8.57;;;7.68;;
15996;SDS011;8103;51.340;12.326;2023-06-24T07:34:29;7.60;;;6.90;;
15996;SDS011;8103;51.340;12.326;2023-06-24T07:36:56;9.88;;;7.03;;
15996;SDS011;8103;51.340;12.326;2023-06-24T07:39:26;8.02;;;7.22;;
15996;SDS011;8103;51.340;12.326;2023-06-24T07:41:53;15.82;;;11.15;;
15996;SDS011;8103;51.340;12.326;2023-06-24T07:44:20;11.07;;;8.30;;
15996;SDS011;8103;51.340;12.326;2023-06-24T07:46:47;8.80;;;7.55;;
15996;SDS011;8103;51.340;12.326;2023-06-24T07:49:17;8.70;;;7.55;;
15996;SDS011;8103;51.340;12.326;2023-06-24T07:51:44;9.05;;;7.70;;
15996;SDS011;8103;51.340;12.326;2023-06-24T07:54:11;10.40;;;7.53;;
15996;SDS011;8103;51.340;12.326;2023-06-24T07:56:38;7.93;;;7.13;;
15996;SDS011;8103;51.340;12.326;2023-06-24T07:59:05;6.03;;;5.40;;
15996;SDS011;8103;51.340;12.326;2023-06-24T08:01:32;7.82;;;7.15;;
15996;SDS011;8103;51.340;12.326;2023-06-24T08:03:59;8.10;;;6.32;;
15996;SDS011;8103;51.340;12.326;2023-06-24T08:06:26;10.38;;;6.38;;
15996;SDS011;8103;51.340;12.326;2023-06-24T08:08:53;7.25;;;6.55;;
15996;SDS011;8103;51.340;12.326;2023-06-24T08:11:20;7.57;;;6.25;;
15996;SDS011;8103;51.340;12.326;2023-06-24T08:13:47;6.43;;;5.82;;
15996;SDS011;8103;51.340;12.326;2023-06-24T08:16:15;5.50;;;4.93;;
15996;SDS011;8103;51.340;12.326;2023-06-24T08:18:44;8.35;;;5.70;;
15996;SDS011;8103;51.340;12.326;2023-06-24T08:21:12;7.63;;;6.30;;
15996;SDS011;8103;51.340;12.326;2023-06-24T08:23:39;8.27;;;5.72;;
15996;SDS011;8103;51.340;12.326;2023-06-24T08:26:07;7.78;;;5.57;;
15996;SDS011;8103;51.340;12.326;2023-06-24T08:28:42;5.85;;;5.25;;
15996;SDS011;8103;51.340;12.326;2023-06-24T08:31:09;9.40;;;5.63;;
15996;SDS011;8103;51.340;12.326;2023-06-24T08:33:36;5.97;;;5.38;;
15996;SDS011;8103;51.340;12.326;2023-06-24T08:36:03;7.07;;;4.85;;
15996;SDS011;8103;51.340;12.326;2023-06-24T08:38:30;8.88;;;4.90;;
15996;SDS011;8103;51.340;12.326;2023-06-24T08:40:57;6.40;;;5.10;;
15996;SDS011;8103;51.340;12.326;2023-06-24T08:43:24;5.05;;;4.30;;
15996;SDS011;8103;51.340;12.326;2023-06-24T08:45:51;5.18;;;4.72;;
15996;SDS011;8103;51.340;12.326;2023-06-24T08:48:19;4.53;;;4.10;;
15996;SDS011;8103;51.340;12.326;2023-06-24T08:50:49;4.15;;;3.72;;
15996;SDS011;8103;51.340;12.326;2023-06-24T08:53:21;5.65;;;4.60;;
15996;SDS011;8103;51.340;12.326;2023-06-24T08:55:49;4.53;;;4.07;;
15996;SDS011;8103;51.340;12.326;2023-06-24T08:58:19;5.70;;;4.93;;
15996;SDS011;8103;51.340;12.326;2023-06-24T09:00:47;5.47;;;4.22;;
15996;SDS011;8103;51.340;12.326;2023-06-24T09:03:14;6.45;;;3.65;;
15996;SDS011;8103;51.340;12.326;2023-06-24T09:05:41;4.05;;;3.65;;
15996;SDS011;8103;51.340;12.326;2023-06-24T09:08:10;6.07;;;4.53;;
15996;SDS011;8103;51.340;12.326;2023-06-24T09:10:37;3.88;;;3.45;;
15996;SDS011;8103;51.340;12.326;2023-06-24T09:13:06;4.03;;;3.63;;
15996;SDS011;8103;51.340;12.326;2023-06-24T09:15:34;4.38;;;3.10;;
15996;SDS011;8103;51.340;12.326;2023-06-24T09:18:03;6.18;;;4.60;;
15996;SDS011;8103;51.340;12.326;2023-06-24T09:20:31;6.28;;;5.32;;
15996;SDS011;8103;51.340;12.326;2023-06-24T09:22:59;5.10;;;4.50;;
15996;SDS011;8103;51.340;12.326;2023-06-24T09:25:31;6.93;;;4.70;;
15996;SDS011;8103;51.340;12.326;2023-06-24T09:28:00;5.60;;;4.78;;
15996;SDS011;8103;51.340;12.326;2023-06-24T09:30:28;4.15;;;3.13;;
15996;SDS011;8103;51.340;12.326;2023-06-24T09:37:01;4.95;;;3.65;;
15996;SDS011;8103;51.340;12.326;2023-06-24T09:39:34;4.55;;;3.63;;
15996;SDS011;8103;51.340;12.326;2023-06-24T09:42:08;3.70;;;3.03;;
15996;SDS011;8103;51.340;12.326;2023-06-24T09:44:36;3.38;;;3.03;;
15996;SDS011;8103;51.340;12.326;2023-06-24T09:47:03;3.17;;;2.80;;
15996;SDS011;8103;51.340;12.326;2023-06-24T09:49:30;4.68;;;3.55;;
15996;SDS011;8103;51.340;12.326;2023-06-24T09:51:58;3.70;;;3.35;;
15996;SDS011;8103;51.340;12.326;2023-06-24T09:54:28;5.03;;;3.75;;
15996;SDS011;8103;51.340;12.326;2023-06-24T09:56:59;5.47;;;4.03;;
15996;SDS011;8103;51.340;12.326;2023-06-24T09:59:30;3.90;;;3.50;;
15996;SDS011;8103;51.340;12.326;2023-06-24T10:02:00;3.53;;;3.10;;
15996;SDS011;8103;51.340;12.326;2023-06-24T10:04:28;3.63;;;3.13;;
15996;SDS011;8103;51.340;12.326;2023-06-24T10:06:57;6.75;;;4.75;;
15996;SDS011;8103;51.340;12.326;2023-06-24T10:09:25;3.83;;;3.42;;
15996;SDS011;8103;51.340;12.326;2023-06-24T10:11:52;3.70;;;2.90;;
15996;SDS011;8103;51.340;12.326;2023-06-24T10:14:19;3.53;;;3.22;;
15996;SDS011;8103;51.340;12.326;2023-06-24T10:16:47;4.25;;;2.90;;
15996;SDS011;8103;51.340;12.326;2023-06-24T10:19:20;5.43;;;2.92;;
15996;SDS011;8103;51.340;12.326;2023-06-24T10:21:52;3.45;;;3.03;;
15996;SDS011;8103;51.340;12.326;2023-06-24T10:24:34;2.83;;;2.63;;
15996;SDS011;8103;51.340;12.326;2023-06-24T10:27:07;3.20;;;2.90;;
15996;SDS011;8103;51.340;12.326;2023-06-24T10:29:47;4.05;;;2.80;;
15996;SDS011;8103;51.340;12.326;2023-06-24T10:32:17;3.45;;;3.15;;
15996;SDS011;8103;51.340;12.326;2023-06-24T10:34:46;3.60;;;3.10;;
15996;SDS011;8103;51.340;12.326;2023-06-24T10:47:40;3.17;;;2.88;;
15996;SDS011;8103;51.340;12.326;2023-06-24T10:50:13;2.92;;;2.53;;
15996;SDS011;8103;51.340;12.326;2023-06-24T10:52:48;3.65;;;2.95;;
15996;SDS011;8103;51.340;12.326;2023-06-24T10:55:22;3.42;;;2.70;;
15996;SDS011;8103;51.340;12.326;2023-06-24T10:57:51;4.25;;;2.95;;
15996;SDS011;8103;51.340;12.326;2023-06-24T11:00:20;3.03;;;2.72;;
15996;SDS011;8103;51.340;12.326;2023-06-24T11:02:49;2.83;;;2.63;;
15996;SDS011;8103;51.340;12.326;2023-06-24T11:05:19;3.60;;;3.33;;
15996;SDS011;8103;51.340;12.326;2023-06-24T11:07:46;3.78;;;3.00;;
15996;SDS011;8103;51.340;12.326;2023-06-24T11:10:14;3.35;;;2.60;;
15996;SDS011;8103;51.340;12.326;2023-06-24T11:12:42;2.53;;;2.20;;
15996;SDS011;8103;51.340;12.326;2023-06-24T11:15:13;5.75;;;2.92;;
15996;SDS011;8103;51.340;12.326;2023-06-24T11:17:42;3.53;;;2.58;;
15996;SDS011;8103;51.340;12.326;2023-06-24T11:20:10;3.25;;;3.05;;
15996;SDS011;8103;51.340;12.326;2023-06-24T11:22:40;2.88;;;2.55;;
15996;SDS011;8103;51.340;12.326;2023-06-24T11:25:17;4.95;;;2.75;;
15996;SDS011;8103;51.340;12.326;2023-06-24T11:27:49;3.33;;;3.03;;
15996;SDS011;8103;51.340;12.326;2023-06-24T11:30:18;3.65;;;2.40;;
15996;SDS011;8103;51.340;12.326;2023-06-24T11:32:45;2.85;;;2.63;;
15996;SDS011;8103;51.340;12.326;2023-06-24T11:35:14;5.50;;;2.58;;
15996;SDS011;8103;51.340;12.326;2023-06-24T11:37:46;2.47;;;2.25;;
15996;SDS011;8103;51.340;12.326;2023-06-24T11:44:03;3.17;;;2.88;;
15996;SDS011;8103;51.340;12.326;2023-06-24T11:46:32;2.65;;;2.40;;
15996;SDS011;8103;51.340;12.326;2023-06-24T11:49:06;2.88;;;2.22;;
15996;SDS011;8103;51.340;12.326;2023-06-24T11:51:34;5.15;;;3.30;;
15996;SDS011;8103;51.340;12.326;2023-06-24T11:54:03;2.70;;;2.50;;
15996;SDS011;8103;51.340;12.326;2023-06-24T11:56:35;3.58;;;2.78;;
15996;SDS011;8103;51.340;12.326;2023-06-24T11:59:06;2.78;;;2.40;;
15996;SDS011;8103;51.340;12.326;2023-06-24T12:01:46;3.97;;;2.50;;
15996;SDS011;8103;51.340;12.326;2023-06-24T12:04:27;2.85;;;2.65;;
15996;SDS011;8103;51.340;12.326;2023-06-24T12:06:56;3.45;;;2.80;;
15996;SDS011;8103;51.340;12.326;2023-06-24T12:09:25;3.33;;;2.70;;
15996;SDS011;8103;51.340;12.326;2023-06-24T12:11:53;3.83;;;2.70;;
15996;SDS011;8103;51.340;12.326;2023-06-24T12:14:20;2.80;;;2.60;;
15996;SDS011;8103;51.340;12.326;2023-06-24T12:16:47;2.72;;;2.40;;
15996;SDS011;8103;51.340;12.326;2023-06-24T12:19:14;2.95;;;2.55;;
15996;SDS011;8103;51.340;12.326;2023-06-24T12:21:41;2.65;;;2.45;;
15996;SDS011;8103;51.340;12.326;2023-06-24T12:24:08;2.78;;;2.60;;
15996;SDS011;8103;51.340;12.326;2023-06-24T12:26:35;2.97;;;2.67;;
15996;SDS011;8103;51.340;12.326;2023-06-24T12:29:03;3.05;;;2.38;;
15996;SDS011;8103;51.340;12.326;2023-06-24T12:31:32;2.97;;;2.72;;
15996;SDS011;8103;51.340;12.326;2023-06-24T12:33:59;9.40;;;3.70;;
15996;SDS011;8103;51.340;12.326;2023-06-24T12:36:26;2.50;;;2.30;;
15996;SDS011;8103;51.340;12.326;2023-06-24T12:38:54;3.67;;;2.97;;
15996;SDS011;8103;51.340;12.326;2023-06-24T12:41:21;6.30;;;2.60;;
15996;SDS011;8103;51.340;12.326;2023-06-24T12:43:48;2.53;;;2.33;;
15996;SDS011;8103;51.340;12.326;2023-06-24T12:46:15;3.53;;;2.90;;
15996;SDS011;8103;51.340;12.326;2023-06-24T12:48:41;3.08;;;2.88;;
15996;SDS011;8103;51.340;12.326;2023-06-24T12:51:09;2.40;;;2.28;;
15996;SDS011;8103;51.340;12.326;2023-06-24T12:53:36;3.15;;;2.58;;
15996;SDS011;8103;51.340;12.326;2023-06-24T12:56:04;2.80;;;2.60;;
15996;SDS011;8103;51.340;12.326;2023-06-24T12:58:30;2.42;;;2.22;;
15996;SDS011;8103;51.340;12.326;2023-06-24T13:01:01;2.67;;;2.47;;
15996;SDS011;8103;51.340;12.326;2023-06-24T13:03:28;3.65;;;2.78;;
15996;SDS011;8103;51.340;12.326;2023-06-24T13:05:54;2.50;;;2.30;;
15996;SDS011;8103;51.340;12.326;2023-06-24T13:08:21;2.63;;;2.42;;
15996;SDS011;8103;51.340;12.326;2023-06-24T13:10:48;5.03;;;2.60;;
15996;SDS011;8103;51.340;12.326;2023-06-24T13:13:15;2.60;;;2.40;;
15996;SDS011;8103;51.340;12.326;2023-06-24T13:15:42;3.50;;;2.65;;
15996;SDS011;8103;51.340;12.326;2023-06-24T13:18:09;6.00;;;2.38;;
15996;SDS011;8103;51.340;12.326;2023-06-24T13:20:35;4.43;;;2.35;;
15996;SDS011;8103;51.340;12.326;2023-06-24T13:23:02;2.67;;;2.47;;
15996;SDS011;8103;51.340;12.326;2023-06-24T13:25:29;4.65;;;2.58;;
15996;SDS011;8103;51.340;12.326;2023-06-24T13:27:56;7.65;;;2.75;;
15996;SDS011;8103;51.340;12.326;2023-06-24T13:30:23;3.30;;;3.00;;
15996;SDS011;8103;51.340;12.326;2023-06-24T13:32:50;2.72;;;2.50;;
15996;SDS011;8103;51.340;12.326;2023-06-24T13:35:17;2.50;;;2.35;;
15996;SDS011;8103;51.340;12.326;2023-06-24T13:41:56;2.70;;;2.47;;
15996;SDS011;8103;51.340;12.326;2023-06-24T13:44:23;4.25;;;2.70;;
15996;SDS011;8103;51.340;12.326;2023-06-24T13:46:50;5.18;;;3.05;;
15996;SDS011;8103;51.340;12.326;2023-06-24T13:49:19;2.97;;;2.50;;
15996;SDS011;8103;51.340;12.326;2023-06-24T13:51:46;2.63;;;2.42;;
15996;SDS011;8103;51.340;12.326;2023-06-24T13:54:13;4.45;;;2.75;;
15996;SDS011;8103;51.340;12.326;2023-06-24T13:56:40;2.88;;;2.25;;
15996;SDS011;8103;51.340;12.326;2023-06-24T13:59:07;2.95;;;2.75;;
15996;SDS011;8103;51.340;12.326;2023-06-24T14:01:36;4.68;;;2.88;;
15996;SDS011;8103;51.340;12.326;2023-06-24T14:04:06;4.07;;;2.88;;
15996;SDS011;8103;51.340;12.326;2023-06-24T14:06:33;2.92;;;2.72;;
15996;SDS011;8103;51.340;12.326;2023-06-24T14:08:59;2.95;;;2.75;;
15996;SDS011;8103;51.340;12.326;2023-06-24T14:11:26;2.47;;;2.28;;
15996;SDS011;8103;51.340;12.326;2023-06-24T14:13:54;2.67;;;2.47;;
15996;SDS011;8103;51.340;12.326;2023-06-24T14:16:21;2.75;;;2.38;;
15996;SDS011;8103;51.340;12.326;2023-06-24T14:18:48;3.00;;;2.80;;
15996;SDS011;8103;51.340;12.326;2023-06-24T14:21:15;3.42;;;2.80;;
15996;SDS011;8103;51.340;12.326;2023-06-24T14:23:42;2.95;;;2.65;;
15996;SDS011;8103;51.340;12.326;2023-06-24T14:26:09;3.15;;;2.72;;
15996;SDS011;8103;51.340;12.326;2023-06-24T14:28:36;3.35;;;3.05;;
15996;SDS011;8103;51.340;12.326;2023-06-24T14:31:03;3.75;;;2.58;;
15996;SDS011;8103;51.340;12.326;2023-06-24T14:33:30;2.47;;;2.28;;
15996;SDS011;8103;51.340;12.326;2023-06-24T14:35:57;2.60;;;2.40;;
15996;SDS011;8103;51.340;12.326;2023-06-24T14:38:24;2.35;;;2.15;;
15996;SDS011;8103;51.340;12.326;2023-06-24T14:40:54;2.65;;;2.45;;
15996;SDS011;8103;51.340;12.326;2023-06-24T14:43:24;2.72;;;2.53;;
15996;SDS011;8103;51.340;12.326;2023-06-24T14:45:51;2.75;;;2.55;;
15996;SDS011;8103;51.340;12.326;2023-06-24T14:48:18;3.72;;;2.60;;
15996;SDS011;8103;51.340;12.326;2023-06-24T14:50:45;3.80;;;2.53;;
15996;SDS011;8103;51.340;12.326;2023-06-24T14:53:11;6.07;;;2.70;;
15996;SDS011;8103;51.340;12.326;2023-06-24T14:55:39;2.95;;;2.33;;
15996;SDS011;8103;51.340;12.326;2023-06-24T14:58:06;2.67;;;2.35;;
15996;SDS011;8103;51.340;12.326;2023-06-24T15:00:33;3.95;;;2.90;;
15996;SDS011;8103;51.340;12.326;2023-06-24T15:03:00;2.90;;;2.55;;
15996;SDS011;8103;51.340;12.326;2023-06-24T15:05:27;2.50;;;2.30;;
15996;SDS011;8103;51.340;12.326;2023-06-24T15:07:55;4.38;;;2.42;;
15996;SDS011;8103;51.340;12.326;2023-06-24T15:10:21;3.47;;;2.42;;
15996;SDS011;8103;51.340;12.326;2023-06-24T15:12:48;2.75;;;2.55;;
15996;SDS011;8103;51.340;12.326;2023-06-24T15:15:15;2.67;;;2.45;;
15996;SDS011;8103;51.340;12.326;2023-06-24T15:17:42;4.13;;;2.50;;